Terminal Aerodrome Forecast
Issued by NWS

Current Version | Previous Version | Graphics & Text | Print | Product List | Glossary On
Versions: 1 2 3 4 5 6 7 8 9 10 11 12 13 14 15 16 17 18 19
000
FTUS41 KPBZ 302342
TAFMGW
TAF
KMGW 302342Z 0100/0124 22010KT P6SM -SHRA BKN040
     FM010200 23005KT P6SM BKN040
     FM011000 25003KT 5SM BR BKN010
     FM011600 27010KT P6SM BKN035
     FM012000 30010KT P6SM SCT040=

USA.gov is the U.S. government's official web portal to all federal, state and local government web resources and services.